Time;durP1;ratioP1;P1;durP2;ratioP2;P2;SDS_P1;SDS_P2;PMS_P1;PMS_P2;Temp;Humidity;BMP_temperature;BMP_pressure;BME280_temperature;BME280_humidity;BME280_pressure;Samples;Min_cycle;Max_cycle;Signal;HPM_P1;HPM_P2
2022/09/19 00:01:29;;;;;;;0.70;0.35;;;8.50;99.90;;;;;;5027015;28;20037;-64
2022/09/19 00:03:59;;;;;;;0.80;0.30;;;8.40;99.90;;;;;;5026927;28;20041;-64
2022/09/19 00:06:29;;;;;;;2.20;0.40;;;8.40;99.90;;;;;;5026616;28;20037;-64
2022/09/19 00:08:56;;;;;;;0.23;0.10;;;8.30;99.90;;;;;;5027683;28;20394;-65
2022/09/19 00:11:23;;;;;;;0.85;0.30;;;8.30;99.90;;;;;;5026167;28;20268;-64
2022/09/19 00:13:51;;;;;;;0.65;0.20;;;8.30;99.90;;;;;;5027171;28;20382;-64
2022/09/19 00:16:47;;;;;;;0.82;0.30;;;8.30;99.90;;;;;;5026398;28;20049;-67
2022/09/19 00:19:21;;;;;;;0.60;0.30;;;8.30;99.90;;;;;;5027144;28;20049;-65
2022/09/19 00:21:48;;;;;;;1.23;0.22;;;8.30;99.90;;;;;;5027747;28;20079;-66
2022/09/19 00:27:03;;;;;;;0.25;0.20;;;8.30;99.90;;;;;;5027503;28;20048;-62
2022/09/19 00:29:31;;;;;;;0.45;0.20;;;8.30;99.90;;;;;;5026373;28;20021;-64
2022/09/19 00:31:56;;;;;;;0.93;0.30;;;8.20;99.90;;;;;;5027470;28;20049;-66
2022/09/19 00:34:23;;;;;;;1.00;0.30;;;8.10;99.90;;;;;;5027499;28;20497;-67
2022/09/19 00:36:49;;;;;;;0.40;0.22;;;8.00;99.90;;;;;;5025612;28;20036;-65
2022/09/19 00:39:17;;;;;;;1.92;0.30;;;7.90;99.90;;;;;;5028436;28;20026;-64
2022/09/19 00:41:43;;;;;;;0.88;0.28;;;7.90;99.90;;;;;;5026263;28;20119;-64
2022/09/19 00:44:27;;;;;;;0.98;0.20;;;7.80;99.90;;;;;;5029268;28;20031;-64
2022/09/19 00:47:05;;;;;;;1.95;0.28;;;7.70;99.90;;;;;;5026270;28;20045;-64
2022/09/19 00:49:37;;;;;;;0.30;0.10;;;7.60;99.90;;;;;;5026137;28;20091;-66
2022/09/19 00:52:07;;;;;;;0.50;0.20;;;7.60;99.90;;;;;;5023348;28;20057;-64
2022/09/19 00:54:44;;;;;;;0.45;0.22;;;7.50;99.90;;;;;;5029649;28;20025;-64
2022/09/19 00:57:14;;;;;;;0.50;0.20;;;7.50;99.90;;;;;;5031918;28;20042;-63
2022/09/19 00:59:43;;;;;;;0.52;0.20;;;7.50;99.90;;;;;;5032104;28;20116;-64
2022/09/19 01:02:09;;;;;;;1.27;0.47;;;7.50;99.90;;;;;;5029431;28;20408;-62
2022/09/19 01:04:35;;;;;;;1.75;0.35;;;7.40;99.90;;;;;;5028934;28;20386;-64
2022/09/19 01:07:07;;;;;;;1.75;0.35;;;7.30;99.90;;;;;;5030014;28;20056;-64
2022/09/19 01:09:44;;;;;;;3.45;0.50;;;7.30;99.90;;;;;;5028174;28;20030;-64
2022/09/19 01:12:47;;;;;;;2.15;0.57;;;7.30;99.90;;;;;;5031017;28;20039;-67
2022/09/19 01:15:36;;;;;;;2.28;0.63;;;7.20;99.90;;;;;;5016101;28;20021;-64
2022/09/19 01:18:03;;;;;;;1.70;0.77;;;7.20;99.90;;;;;;5027709;28;20798;-64
2022/09/19 01:21:37;;;;;;;1.40;0.60;;;7.20;99.90;;;;;;5029883;28;20021;-63
2022/09/19 01:23:59;;;;;;;1.40;0.77;;;7.10;99.90;;;;;;5021934;28;20037;-63
2022/09/19 01:27:00;;;;;;;1.35;0.70;;;7.10;99.90;;;;;;5030402;28;20036;-66
2022/09/19 01:29:51;;;;;;;1.35;1.00;;;7.10;99.90;;;;;;5007166;28;20076;-64
2022/09/19 01:32:22;;;;;;;1.92;0.90;;;7.00;99.90;;;;;;5028948;28;20445;-65
2022/09/19 01:34:53;;;;;;;1.45;0.88;;;7.00;99.90;;;;;;5031190;28;20026;-64
2022/09/19 01:37:31;;;;;;;7.75;0.88;;;7.10;99.90;;;;;;5031018;28;20037;-63
2022/09/19 01:40:00;;;;;;;8.55;1.50;;;7.00;99.90;;;;;;5028929;28;20045;-65
2022/09/19 01:42:26;;;;;;;2.17;1.00;;;7.00;99.90;;;;;;5031539;28;20072;-67
2022/09/19 01:44:53;;;;;;;1.88;1.10;;;7.00;99.90;;;;;;5030526;28;20065;-63
2022/09/19 01:47:38;;;;;;;4.90;1.50;;;7.00;99.90;;;;;;5028433;28;20087;-64
2022/09/19 01:50:31;;;;;;;3.40;1.48;;;6.90;99.90;;;;;;5029599;28;20536;-63
2022/09/19 01:53:15;;;;;;;3.20;1.30;;;6.90;99.90;;;;;;5030575;28;20044;-64
2022/09/19 01:56:16;;;;;;;3.78;1.40;;;6.80;99.90;;;;;;5029130;28;20111;-65
2022/09/19 01:58:54;;;;;;;3.47;1.48;;;6.80;99.90;;;;;;5028559;28;20386;-64
2022/09/19 02:01:31;;;;;;;4.72;1.63;;;6.80;99.90;;;;;;5030667;28;20033;-64
2022/09/19 02:04:11;;;;;;;3.80;1.65;;;6.80;99.90;;;;;;5030110;28;20041;-64
2022/09/19 02:06:42;;;;;;;2.92;1.60;;;6.80;99.90;;;;;;5030630;28;20052;-65
2022/09/19 02:09:21;;;;;;;10.43;1.77;;;6.80;99.90;;;;;;5030449;28;20045;-64
2022/09/19 02:11:47;;;;;;;2.67;1.58;;;6.80;99.90;;;;;;5042987;28;20620;-63
2022/09/19 02:14:19;;;;;;;4.07;1.30;;;6.70;99.90;;;;;;5030021;28;20041;-63
2022/09/19 02:17:03;;;;;;;2.78;1.30;;;6.70;99.90;;;;;;5028444;28;20037;-63
2022/09/19 02:19:36;;;;;;;2.92;1.42;;;6.70;99.90;;;;;;5029186;28;20025;-69
2022/09/19 02:22:20;;;;;;;3.83;1.40;;;6.70;99.90;;;;;;5030002;28;20030;-65
2022/09/19 02:24:47;;;;;;;1.95;1.23;;;6.70;99.90;;;;;;5022988;28;20037;-64
2022/09/19 02:27:26;;;;;;;3.00;1.10;;;6.70;99.90;;;;;;5028692;28;20049;-64
2022/09/19 02:30:00;;;;;;;3.40;0.90;;;6.70;99.90;;;;;;5024585;28;20064;-65
2022/09/19 02:32:26;;;;;;;4.72;0.80;;;6.70;99.90;;;;;;5029140;28;20050;-67
2022/09/19 02:34:55;;;;;;;1.83;0.90;;;6.70;99.90;;;;;;5028740;28;20108;-67
2022/09/19 02:37:35;;;;;;;4.60;1.15;;;6.70;99.90;;;;;;5030349;28;20116;-64
2022/09/19 02:40:11;;;;;;;2.42;0.93;;;6.70;99.90;;;;;;5029612;28;20040;-64
2022/09/19 02:43:04;;;;;;;2.25;0.93;;;6.70;99.90;;;;;;5027885;28;20033;-64
2022/09/19 02:45:34;;;;;;;2.38;1.20;;;6.70;99.90;;;;;;5029267;28;20073;-67
2022/09/19 02:48:03;;;;;;;2.40;0.77;;;6.70;99.90;;;;;;5028999;28;20032;-64
2022/09/19 02:50:47;;;;;;;2.42;1.02;;;6.70;99.90;;;;;;5029662;28;20025;-64
2022/09/19 02:53:18;;;;;;;3.45;1.20;;;6.80;99.90;;;;;;5028981;28;20463;-64
2022/09/19 02:55:49;;;;;;;2.05;1.25;;;6.80;99.90;;;;;;5027517;28;20030;-64
2022/09/19 02:58:17;;;;;;;6.13;1.60;;;6.80;99.90;;;;;;5030084;28;20033;-63
2022/09/19 03:00:52;;;;;;;2.38;1.40;;;6.80;99.90;;;;;;5027080;28;20029;-65
2022/09/19 03:06:38;;;;;;;3.75;1.35;;;6.80;99.90;;;;;;5021995;28;20136;-65
2022/09/19 03:09:06;;;;;;;;;;;6.80;99.90;;;;;;5028584;28;20041;-64
2022/09/19 03:11:34;;;;;;;2.70;1.20;;;6.80;99.90;;;;;;5026561;28;19991;-67
2022/09/19 03:14:01;;;;;;;2.78;1.30;;;6.80;99.90;;;;;;5024957;28;20026;-64
2022/09/19 03:16:34;;;;;;;2.40;1.20;;;6.90;99.90;;;;;;5022564;28;20041;-65
2022/09/19 03:19:04;;;;;;;4.45;1.38;;;6.90;99.90;;;;;;5029007;28;20037;-64
2022/09/19 03:21:29;;;;;;;6.22;1.38;;;6.90;99.90;;;;;;5026692;28;20030;-66
2022/09/19 03:23:58;;;;;;;1.60;0.90;;;6.90;99.90;;;;;;5024234;28;20577;-66
2022/09/19 03:26:30;;;;;;;6.65;0.82;;;7.00;99.90;;;;;;5028776;28;20033;-64
2022/09/19 03:28:57;;;;;;;2.88;1.13;;;7.00;99.90;;;;;;5029011;28;20026;-65
2022/09/19 03:31:24;;;;;;;5.22;0.90;;;7.00;99.90;;;;;;5027924;28;20132;-63
2022/09/19 03:33:51;;;;;;;4.13;1.13;;;7.00;99.90;;;;;;5026390;28;20761;-63
2022/09/19 03:36:18;;;;;;;6.40;1.05;;;7.10;99.90;;;;;;5029259;28;20068;-64
2022/09/19 03:38:46;;;;;;;1.98;1.00;;;7.10;99.90;;;;;;5025950;28;20029;-64
2022/09/19 03:41:21;;;;;;;5.20;1.10;;;7.20;99.90;;;;;;5029907;28;20037;-63
2022/09/19 03:43:47;;;;;;;5.47;1.50;;;7.10;99.90;;;;;;5026815;28;20035;-64
2022/09/19 03:46:19;;;;;;;4.13;0.93;;;7.20;99.90;;;;;;5029613;28;20505;-65
2022/09/19 03:48:46;;;;;;;4.38;1.20;;;7.20;99.90;;;;;;5026560;28;20467;-64
2022/09/19 03:51:13;;;;;;;5.78;1.20;;;7.20;99.90;;;;;;5028993;28;20112;-65
2022/09/19 03:53:42;;;;;;;5.75;1.10;;;7.20;99.90;;;;;;5025864;28;20025;-64
2022/09/19 03:56:09;;;;;;;8.48;1.30;;;7.30;99.90;;;;;;5028164;28;20133;-68
2022/09/19 03:58:35;;;;;;;7.90;1.83;;;7.30;99.90;;;;;;5023401;28;20041;-72
2022/09/19 04:01:01;;;;;;;3.63;1.05;;;7.30;99.90;;;;;;5020572;28;20049;-68
2022/09/19 04:03:27;;;;;;;3.42;1.05;;;7.30;99.90;;;;;;5022038;28;20036;-65
2022/09/19 04:05:52;;;;;;;5.63;1.50;;;7.30;99.90;;;;;;5026980;28;20044;-64
2022/09/19 04:08:19;;;;;;;3.97;0.98;;;7.40;99.90;;;;;;5029051;28;20440;-65
2022/09/19 04:10:45;;;;;;;5.60;1.10;;;7.40;99.90;;;;;;5027585;28;20025;-64
2022/09/19 04:13:12;;;;;;;4.18;1.10;;;7.40;99.90;;;;;;5026335;28;20095;-65
2022/09/19 04:15:38;;;;;;;5.85;1.10;;;7.40;99.90;;;;;;5028420;28;20578;-65
2022/09/19 04:18:04;;;;;;;7.55;1.33;;;7.40;99.90;;;;;;5027142;28;20036;-65
2022/09/19 04:20:31;;;;;;;3.25;1.50;;;7.50;99.90;;;;;;5027129;28;20025;-66
2022/09/19 04:23:00;;;;;;;4.85;1.30;;;7.50;99.90;;;;;;5022434;28;20048;-65
2022/09/19 04:25:33;;;;;;;9.52;1.70;;;7.50;99.90;;;;;;5025944;28;20036;-65
2022/09/19 04:28:03;;;;;;;3.75;1.58;;;7.50;99.90;;;;;;5022240;28;20135;-64
2022/09/19 04:30:31;;;;;;;3.72;1.40;;;7.50;99.90;;;;;;5028578;28;20032;-64
2022/09/19 04:32:58;;;;;;;9.45;1.38;;;7.50;99.90;;;;;;5025151;28;20506;-64
2022/09/19 04:35:24;;;;;;;3.58;1.38;;;7.50;99.90;;;;;;5029168;28;20030;-65
2022/09/19 04:37:49;;;;;;;7.35;1.40;;;7.60;99.90;;;;;;5026531;28;20036;-65
2022/09/19 04:40:15;;;;;;;5.40;1.65;;;7.50;99.90;;;;;;5027761;28;20029;-67
2022/09/19 04:42:41;;;;;;;4.70;1.40;;;7.50;99.90;;;;;;5026791;28;20092;-65
2022/09/19 04:45:08;;;;;;;3.83;1.30;;;7.50;99.90;;;;;;5028253;28;20065;-66
2022/09/19 04:47:37;;;;;;;4.20;1.77;;;7.60;99.90;;;;;;5025397;28;20540;-68
2022/09/19 04:50:06;;;;;;;5.38;1.88;;;7.60;99.90;;;;;;5009398;28;20026;-66
2022/09/19 04:52:32;;;;;;;8.83;1.50;;;7.50;99.90;;;;;;5026194;28;20033;-69
2022/09/19 04:54:58;;;;;;;10.85;1.75;;;7.50;99.90;;;;;;5027474;28;20036;-66
2022/09/19 04:57:26;;;;;;;4.88;1.50;;;7.60;99.90;;;;;;5029221;28;20080;-66
2022/09/19 04:59:54;;;;;;;6.38;1.40;;;7.60;99.90;;;;;;5026232;28;20256;-65
2022/09/19 05:02:21;;;;;;;3.38;1.33;;;7.60;99.90;;;;;;5026800;28;20080;-66
2022/09/19 05:04:46;;;;;;;5.70;1.83;;;7.60;99.90;;;;;;5027075;28;20116;-64
2022/09/19 05:07:13;;;;;;;2.30;1.20;;;7.60;99.90;;;;;;5027185;28;20114;-65
2022/09/19 05:09:41;;;;;;;7.22;1.70;;;7.60;99.90;;;;;;5026750;28;20470;-64
2022/09/19 05:12:09;;;;;;;7.15;1.60;;;7.60;99.90;;;;;;5027503;28;20579;-66
2022/09/19 05:14:35;;;;;;;8.07;1.55;;;7.60;99.90;;;;;;5024602;28;20048;-69
2022/09/19 05:17:00;;;;;;;7.38;1.70;;;7.60;99.90;;;;;;5024015;28;20494;-64
2022/09/19 05:19:26;;;;;;;4.72;1.90;;;7.60;99.90;;;;;;5026227;28;20034;-66
2022/09/19 05:21:52;;;;;;;6.82;1.58;;;7.60;99.90;;;;;;5019356;28;20075;-65
2022/09/19 05:24:18;;;;;;;10.77;1.88;;;7.50;99.90;;;;;;5026243;28;20021;-64
2022/09/19 05:26:45;;;;;;;7.15;2.22;;;7.50;99.90;;;;;;5027070;28;20087;-64
2022/09/19 05:29:14;;;;;;;6.75;2.08;;;7.50;99.90;;;;;;5027097;28;20033;-63
2022/09/19 05:31:40;;;;;;;6.25;1.80;;;7.60;99.90;;;;;;5026927;28;20405;-63
2022/09/19 05:34:09;;;;;;;8.25;1.85;;;7.60;99.90;;;;;;5028145;28;20072;-64
2022/09/19 05:36:35;;;;;;;9.80;1.88;;;7.50;99.90;;;;;;5026955;28;20037;-68
2022/09/19 05:39:00;;;;;;;9.30;2.75;;;7.50;99.90;;;;;;5031007;28;20044;-67
2022/09/19 05:41:26;;;;;;;6.10;1.90;;;7.50;99.90;;;;;;5031465;28;20026;-65
2022/09/19 05:43:52;;;;;;;15.05;2.67;;;7.50;99.90;;;;;;5031377;28;20079;-66
2022/09/19 05:46:20;;;;;;;14.88;2.42;;;7.60;99.90;;;;;;5031160;28;20045;-65
2022/09/19 05:48:47;;;;;;;11.50;2.50;;;7.60;99.90;;;;;;5031390;28;20026;-66
2022/09/19 05:51:13;;;;;;;3.67;2.05;;;7.70;99.90;;;;;;5030845;28;20021;-66
2022/09/19 05:53:57;;;;;;;6.75;2.38;;;7.60;99.90;;;;;;5029695;28;20059;-68
2022/09/19 05:56:24;;;;;;;9.73;2.05;;;7.70;99.90;;;;;;5031741;28;20100;-64
2022/09/19 05:58:53;;;;;;;5.20;2.20;;;7.70;99.90;;;;;;5027515;28;20025;-67
2022/09/19 06:01:19;;;;;;;6.00;2.30;;;7.70;99.90;;;;;;5028723;28;20034;-65
2022/09/19 06:03:45;;;;;;;12.15;2.65;;;7.80;99.90;;;;;;5026786;28;20552;-65
2022/09/19 06:06:14;;;;;;;10.88;2.53;;;7.80;99.90;;;;;;5025296;28;20030;-66
2022/09/19 06:08:42;;;;;;;12.57;2.75;;;7.80;99.90;;;;;;5023600;28;20064;-68
2022/09/19 06:11:09;;;;;;;8.77;3.00;;;7.80;99.90;;;;;;5030383;28;20822;-65
2022/09/19 06:16:18;;;;;;;6.38;2.50;;;7.90;99.90;;;;;;5030320;28;20087;-66
2022/09/19 06:18:44;;;;;;;11.13;3.10;;;7.90;99.90;;;;;;5028073;28;20049;-64
2022/09/19 06:21:10;;;;;;;17.90;2.60;;;7.90;99.90;;;;;;5029644;28;20044;-66
2022/09/19 06:23:36;;;;;;;9.10;2.60;;;8.00;99.90;;;;;;5029006;28;20022;-66
2022/09/19 06:26:01;;;;;;;11.68;2.55;;;8.00;99.90;;;;;;5029319;28;20171;-68
2022/09/19 06:28:27;;;;;;;6.65;2.70;;;8.00;99.90;;;;;;5027624;28;20553;-66
2022/09/19 06:30:53;;;;;;;7.65;2.13;;;8.10;99.90;;;;;;5031284;28;20064;-65
2022/09/19 06:33:19;;;;;;;12.27;2.75;;;8.10;99.90;;;;;;5024179;28;20054;-66
2022/09/19 06:35:44;;;;;;;9.15;2.30;;;8.20;99.90;;;;;;5026758;28;20040;-66
2022/09/19 06:38:11;;;;;;;13.77;2.45;;;8.20;99.90;;;;;;5025927;28;20536;-68
2022/09/19 06:40:38;;;;;;;9.00;2.58;;;8.20;99.90;;;;;;5031120;28;20029;-67
2022/09/19 06:43:05;;;;;;;10.32;2.70;;;8.20;99.90;;;;;;5028833;28;20073;-64
2022/09/19 06:45:38;;;;;;;10.18;2.30;;;8.30;99.90;;;;;;5029975;28;20021;-67
2022/09/19 06:48:05;;;;;;;7.88;2.53;;;8.30;99.90;;;;;;5027833;28;20037;-65
2022/09/19 06:50:31;;;;;;;8.55;2.22;;;8.30;99.90;;;;;;5029326;28;20489;-65
2022/09/19 06:52:58;;;;;;;15.45;2.70;;;8.30;99.90;;;;;;5027482;28;20120;-65
2022/09/19 06:55:25;;;;;;;7.45;2.40;;;8.30;99.90;;;;;;5027274;28;20113;-64
2022/09/19 06:57:55;;;;;;;8.52;2.95;;;8.40;99.90;;;;;;5026752;28;20044;-64
2022/09/19 07:00:24;;;;;;;9.82;2.95;;;8.50;99.90;;;;;;5028180;28;20109;-66
2022/09/19 07:03:01;;;;;;;7.50;2.50;;;8.50;99.90;;;;;;5027329;28;20504;-66
2022/09/19 07:05:29;;;;;;;10.25;2.70;;;8.50;99.90;;;;;;5026944;28;20029;-66
2022/09/19 07:07:55;;;;;;;9.48;2.28;;;8.50;99.90;;;;;;5028752;28;20675;-64
2022/09/19 07:10:21;;;;;;;14.75;2.65;;;8.50;99.90;;;;;;5025086;28;20036;-66
2022/09/19 07:12:51;;;;;;;5.97;2.83;;;8.50;99.90;;;;;;5027867;28;20050;-66
2022/09/19 07:15:17;;;;;;;10.35;3.30;;;8.50;99.90;;;;;;5029208;28;20038;-67
2022/09/19 07:17:43;;;;;;;10.43;2.50;;;8.60;99.90;;;;;;5027027;28;20033;-68
2022/09/19 07:20:08;;;;;;;13.93;3.15;;;8.60;99.90;;;;;;5027256;28;20026;-64
2022/09/19 07:22:35;;;;;;;13.10;3.25;;;8.60;99.90;;;;;;5028305;28;20028;-64
2022/09/19 07:25:01;;;;;;;10.38;3.05;;;8.60;99.90;;;;;;5024999;28;20051;-66
2022/09/19 07:27:26;;;;;;;11.05;3.05;;;8.60;99.90;;;;;;5027895;28;20394;-67
2022/09/19 07:29:52;;;;;;;9.45;2.70;;;8.70;99.90;;;;;;5027484;28;20030;-66
2022/09/19 07:32:18;;;;;;;6.32;3.08;;;8.70;99.90;;;;;;5028018;28;20045;-66
2022/09/19 07:34:45;;;;;;;13.15;3.10;;;8.70;99.90;;;;;;5028281;28;20512;-70
2022/09/19 07:37:11;;;;;;;11.98;3.00;;;8.70;99.90;;;;;;5029202;28;20033;-66
2022/09/19 07:39:37;;;;;;;8.93;3.10;;;8.70;99.90;;;;;;5027966;28;20033;-65
2022/09/19 07:42:03;;;;;;;11.88;3.00;;;8.70;99.90;;;;;;5027636;28;20104;-63
2022/09/19 07:44:28;;;;;;;16.70;3.85;;;8.70;99.90;;;;;;5027048;28;20029;-62
2022/09/19 07:49:38;;;;;;;17.13;3.72;;;8.60;99.90;;;;;;5028256;28;20032;-66
2022/09/19 07:52:04;;;;;;;13.48;3.67;;;8.70;99.90;;;;;;5022146;28;20033;-63
2022/09/19 07:54:29;;;;;;;17.10;3.85;;;8.60;99.90;;;;;;5028608;28;20043;-66
2022/09/19 07:56:55;;;;;;;13.63;4.10;;;8.60;99.90;;;;;;5028046;28;20037;-65
2022/09/19 07:59:21;;;;;;;12.48;4.05;;;8.70;99.90;;;;;;5027177;28;20121;-65
2022/09/19 08:01:46;;;;;;;12.40;3.67;;;8.70;99.90;;;;;;5026725;28;20437;-66
2022/09/19 08:04:12;;;;;;;15.90;4.00;;;8.70;99.90;;;;;;5028353;28;20088;-65
2022/09/19 08:06:38;;;;;;;9.30;3.60;;;8.80;99.90;;;;;;5025913;28;20096;-66
2022/09/19 08:09:04;;;;;;;14.27;4.03;;;8.80;99.90;;;;;;4996857;28;20095;-64
2022/09/19 08:11:29;;;;;;;15.38;4.18;;;8.80;99.90;;;;;;5028668;28;20047;-64
2022/09/19 08:13:55;;;;;;;14.10;5.18;;;8.90;99.90;;;;;;5025546;28;20387;-66
2022/09/19 08:16:21;;;;;;;9.93;4.13;;;8.90;99.90;;;;;;5024479;28;20033;-66
2022/09/19 08:18:47;;;;;;;12.55;4.88;;;9.00;99.90;;;;;;5028917;28;20037;-69
2022/09/19 08:21:14;;;;;;;12.40;4.03;;;9.00;99.90;;;;;;5024626;28;20120;-64
2022/09/19 08:23:39;;;;;;;11.43;4.15;;;9.00;99.90;;;;;;5028828;28;20053;-65
2022/09/19 08:26:05;;;;;;;10.98;4.30;;;9.10;99.90;;;;;;5026632;28;20084;-65
2022/09/19 08:28:31;;;;;;;11.60;4.18;;;9.20;99.90;;;;;;5029445;28;20083;-63
2022/09/19 08:31:00;;;;;;;17.05;4.07;;;9.10;99.90;;;;;;5026597;28;20471;-65
2022/09/19 08:33:26;;;;;;;13.35;4.78;;;9.30;99.90;;;;;;5028692;28;20100;-63
2022/09/19 08:35:54;;;;;;;13.32;4.15;;;9.50;99.90;;;;;;5027202;28;20045;-66
2022/09/19 08:38:20;;;;;;;6.88;3.40;;;9.60;99.90;;;;;;5025589;28;20083;-64
2022/09/19 08:41:07;;;;;;;10.65;3.72;;;9.70;99.90;;;;;;5027002;28;20033;-70
2022/09/19 08:44:03;;;;;;;8.18;3.15;;;9.70;99.90;;;;;;5024822;28;20026;-65
2022/09/19 08:46:44;;;;;;;12.48;3.70;;;9.50;99.90;;;;;;5025370;28;20033;-66
2022/09/19 08:49:19;;;;;;;;;;;9.60;99.90;;;;;;5028167;28;20034;-65
2022/09/19 08:51:55;;;;;;;13.27;3.92;;;9.40;99.90;;;;;;5027334;28;19909;-64
2022/09/19 08:54:40;;;;;;;10.75;4.00;;;9.40;99.90;;;;;;5028619;28;20034;-64
2022/09/19 08:57:16;;;;;;;14.85;3.78;;;9.50;99.90;;;;;;5026820;28;20037;-65
2022/09/19 08:59:44;;;;;;;8.40;3.47;;;9.50;99.90;;;;;;5027283;28;20030;-66
2022/09/19 09:02:35;;;;;;;14.77;3.30;;;9.50;99.90;;;;;;5027178;28;20200;-65
2022/09/19 09:05:01;;;;;;;12.30;3.40;;;9.60;99.90;;;;;;5025473;28;20029;-70
2022/09/19 09:07:40;;;;;;;7.28;3.05;;;9.80;99.90;;;;;;5027086;28;20061;-65
2022/09/19 09:10:25;;;;;;;17.92;3.05;;;9.90;99.90;;;;;;5027421;28;20143;-64
2022/09/19 09:13:28;;;;;;;19.90;3.20;;;9.80;99.90;;;;;;5032122;28;20441;-66
2022/09/19 09:16:26;;;;;;;10.70;3.10;;;9.80;99.90;;;;;;5029618;28;20048;-65
2022/09/19 09:18:58;;;;;;;7.47;2.63;;;9.80;99.90;;;;;;5027994;28;20045;-68
2022/09/19 09:21:36;;;;;;;8.15;2.58;;;9.70;99.90;;;;;;5028953;28;20040;-66
2022/09/19 09:24:09;;;;;;;11.75;2.95;;;9.60;99.90;;;;;;5031973;28;20037;-65
2022/09/19 09:26:40;;;;;;;13.35;2.97;;;9.60;99.90;;;;;;5030156;28;20034;-64
2022/09/19 09:29:28;;;;;;;11.60;3.47;;;9.60;99.90;;;;;;5030672;28;20033;-65
2022/09/19 09:32:13;;;;;;;9.90;2.92;;;9.60;99.90;;;;;;5029789;28;20046;-63
2022/09/19 09:34:44;;;;;;;10.60;2.97;;;9.80;99.90;;;;;;5032124;28;20029;-65
2022/09/19 09:37:43;;;;;;;14.23;2.95;;;10.00;99.90;;;;;;5025640;28;20677;-65
2022/09/19 09:43:20;;;;;;;11.98;2.83;;;10.30;99.90;;;;;;5030654;28;20083;-64
2022/09/19 09:45:50;;;;;;;12.23;3.40;;;10.20;99.90;;;;;;5030565;28;20048;-65
2022/09/19 09:48:32;;;;;;;10.90;2.85;;;10.40;99.90;;;;;;5029987;28;20037;-65
2022/09/19 09:51:07;;;;;;;10.27;3.42;;;10.30;99.90;;;;;;5030275;28;20033;-66
2022/09/19 09:53:51;;;;;;;8.20;3.30;;;10.40;99.90;;;;;;5024540;28;20437;-68
2022/09/19 09:56:31;;;;;;;13.00;2.83;;;10.40;99.90;;;;;;5027659;28;20147;-67
2022/09/19 09:58:56;;;;;;;19.52;2.80;;;10.40;99.90;;;;;;5029259;28;20049;-67
2022/09/19 10:04:45;;;;;;;10.20;2.72;;;10.40;99.90;;;;;;5006666;28;20037;-68
2022/09/19 10:07:12;;;;;;;13.00;3.30;;;10.60;99.90;;;;;;5027855;28;20033;-67
2022/09/19 10:09:45;;;;;;;8.02;3.08;;;10.70;99.90;;;;;;5027777;28;20029;-67
2022/09/19 10:12:40;;;;;;;7.25;2.65;;;10.80;99.90;;;;;;5027629;28;20075;-64
2022/09/19 10:15:18;;;;;;;11.95;2.67;;;11.00;99.90;;;;;;5017285;28;20072;-67
2022/09/19 10:17:49;;;;;;;8.65;3.30;;;11.00;99.90;;;;;;5027315;28;20482;-69
2022/09/19 10:20:22;;;;;;;8.27;2.97;;;10.90;99.90;;;;;;5028945;28;20130;-67
2022/09/19 10:22:49;;;;;;;8.27;2.35;;;10.70;99.90;;;;;;5027480;28;20459;-67
2022/09/19 10:25:16;;;;;;;8.20;2.63;;;10.80;99.90;;;;;;5029542;28;20025;-69
2022/09/19 10:27:42;;;;;;;10.70;2.80;;;10.90;99.90;;;;;;5021251;28;20534;-68
2022/09/19 10:30:19;;;;;;;9.80;2.95;;;11.10;99.90;;;;;;5025655;28;20038;-67
2022/09/19 10:32:47;;;;;;;10.25;2.58;;;11.20;99.90;;;;;;5028310;28;20053;-64
2022/09/19 10:35:26;;;;;;;12.20;2.90;;;11.30;99.90;;;;;;5027490;28;20025;-65
2022/09/19 10:38:11;;;;;;;10.85;2.47;;;11.20;99.90;;;;;;5029680;28;20064;-71
2022/09/19 10:40:37;;;;;;;8.85;2.22;;;11.00;99.90;;;;;;5028965;28;20033;-65
2022/09/19 10:43:04;;;;;;;13.55;2.85;;;11.00;99.90;;;;;;5026068;28;20029;-65
2022/09/19 10:45:34;;;;;;;7.68;2.78;;;11.10;99.90;;;;;;5029386;28;20116;-65
2022/09/19 10:48:10;;;;;;;14.65;2.72;;;11.20;99.90;;;;;;5025440;28;20089;-65
2022/09/19 10:50:42;;;;;;;9.52;2.65;;;11.10;99.90;;;;;;5031000;28;20025;-67
2022/09/19 10:53:22;;;;;;;13.63;2.47;;;10.90;99.90;;;;;;5027929;28;20416;-69
2022/09/19 10:55:48;;;;;;;11.63;2.75;;;10.90;99.90;;;;;;5027249;28;20064;-64
2022/09/19 10:58:22;;;;;;;12.98;2.78;;;11.20;99.90;;;;;;5024960;28;20021;-71
2022/09/19 11:00:52;;;;;;;9.50;2.47;;;11.30;99.90;;;;;;5025383;28;20033;-65
2022/09/19 11:03:25;;;;;;;8.07;3.08;;;11.40;99.90;;;;;;5022115;28;20034;-65
2022/09/19 11:06:13;;;;;;;12.15;2.80;;;11.40;99.90;;;;;;5028016;28;20049;-68
2022/09/19 11:08:53;;;;;;;10.02;2.70;;;11.20;99.90;;;;;;5025732;28;20025;-65
2022/09/19 11:11:38;;;;;;;9.88;2.60;;;11.20;99.90;;;;;;5027334;28;20033;-67
2022/09/19 11:14:18;;;;;;;12.18;2.55;;;11.20;99.90;;;;;;5024281;28;20059;-66
2022/09/19 11:17:22;;;;;;;5.55;2.20;;;11.40;99.90;;;;;;5027718;28;20509;-64
2022/09/19 11:20:06;;;;;;;3.75;2.20;;;11.60;99.90;;;;;;5041899;28;20485;-69
2022/09/19 11:23:07;;;;;;;12.48;2.83;;;11.70;99.90;;;;;;5028763;28;20044;-66
2022/09/19 11:26:03;;;;;;;6.95;2.05;;;11.90;99.90;;;;;;5028675;28;20402;-66
2022/09/19 11:28:51;;;;;;;11.43;2.33;;;11.70;99.90;;;;;;5025215;28;20037;-65
2022/09/19 11:31:25;;;;;;;11.68;2.70;;;11.80;99.90;;;;;;5017211;28;20025;-66
2022/09/19 11:33:56;;;;;;;11.27;2.45;;;12.60;99.90;;;;;;5026538;28;20048;-65
2022/09/19 11:36:52;;;;;;;9.23;2.20;;;12.30;99.90;;;;;;5027828;28;20041;-66
2022/09/19 11:39:51;;;;;;;7.20;2.47;;;12.30;99.90;;;;;;5025928;28;20036;-66
2022/09/19 11:42:44;;;;;;;5.40;2.28;;;12.10;99.90;;;;;;5027341;28;20443;-65
2022/09/19 11:45:11;;;;;;;13.00;2.53;;;12.00;99.90;;;;;;5020872;28;20030;-64
2022/09/19 11:47:50;;;;;;;8.77;2.38;;;12.00;99.90;;;;;;5023926;28;20061;-66
2022/09/19 11:50:41;;;;;;;10.30;2.13;;;12.00;99.90;;;;;;5026349;28;20037;-67
2022/09/19 11:53:49;;;;;;;7.82;2.53;;;11.90;99.90;;;;;;5022196;28;20033;-66
2022/09/19 11:56:43;;;;;;;10.20;2.47;;;11.80;99.90;;;;;;5023799;28;20034;-64
2022/09/19 11:59:24;;;;;;;5.07;1.75;;;11.80;99.90;;;;;;5021301;28;20037;-65
2022/09/19 12:02:23;;;;;;;7.68;2.58;;;12.00;99.90;;;;;;5026154;28;20033;-66
2022/09/19 12:05:13;;;;;;;5.45;1.92;;;12.20;99.90;;;;;;5024823;28;20534;-66
2022/09/19 12:07:54;;;;;;;11.68;2.97;;;12.70;99.90;;;;;;5027089;28;20095;-63
2022/09/19 12:10:33;;;;;;;24.58;2.40;;;12.80;99.90;;;;;;5027772;28;20226;-68
2022/09/19 12:13:19;;;;;;;5.53;1.98;;;12.90;99.90;;;;;;5027163;28;20029;-69
2022/09/19 12:15:53;;;;;;;9.27;1.75;;;13.00;99.90;;;;;;5022881;28;20037;-66
2022/09/19 12:18:37;;;;;;;8.23;1.95;;;13.60;99.90;;;;;;5024715;28;20049;-64
2022/09/19 12:21:06;;;;;;;2.15;1.50;;;13.80;99.90;;;;;;5023283;28;20083;-65
2022/09/19 12:26:55;;;;;;;5.10;1.90;;;13.30;99.90;;;;;;5018485;28;20041;-66
2022/09/19 12:29:23;;;;;;;5.15;1.83;;;12.90;99.90;;;;;;5020203;28;20357;-65
2022/09/19 12:31:58;;;;;;;5.65;2.33;;;12.60;99.90;;;;;;5027460;28;20114;-66
2022/09/19 12:34:39;;;;;;;6.90;2.03;;;12.20;99.90;;;;;;5027869;28;20087;-64
2022/09/19 12:37:15;;;;;;;6.60;2.28;;;12.20;99.90;;;;;;5026500;28;20045;-64
2022/09/19 12:40:45;;;;;;;8.05;1.80;;;12.20;99.90;;;;;;5028005;28;20462;-66
2022/09/19 12:43:43;;;;;;;4.32;2.00;;;12.20;99.90;;;;;;4941024;28;20457;-66
2022/09/19 12:46:35;;;;;;;8.15;1.92;;;12.00;99.90;;;;;;5022936;28;20033;-64
2022/09/19 12:49:10;;;;;;;5.40;2.17;;;12.00;99.90;;;;;;5004949;28;20041;-67
2022/09/19 12:51:47;;;;;;;9.50;2.17;;;12.00;99.90;;;;;;5031388;28;20045;-65
2022/09/19 12:54:45;;;;;;;11.05;2.10;;;12.20;99.90;;;;;;5012690;28;20463;-65
2022/09/19 12:57:22;;;;;;;7.63;1.85;;;12.20;99.90;;;;;;5018909;28;20091;-65
2022/09/19 12:59:50;;;;;;;11.13;2.30;;;12.30;99.90;;;;;;5030787;28;20029;-66
2022/09/19 13:02:21;;;;;;;7.05;2.03;;;12.40;99.90;;;;;;5029619;28;20427;-68
2022/09/19 13:05:07;;;;;;;8.15;2.35;;;12.50;99.90;;;;;;5031272;28;20556;-68
2022/09/19 13:07:59;;;;;;;4.43;2.20;;;12.60;99.90;;;;;;5026404;28;20067;-68
2022/09/19 13:10:38;;;;;;;8.02;2.35;;;12.60;99.90;;;;;;5025814;28;20065;-68
2022/09/19 13:13:33;;;;;;;7.97;2.40;;;12.60;99.90;;;;;;5027026;28;20032;-71
2022/09/19 13:16:05;;;;;;;6.22;2.63;;;12.60;99.90;;;;;;5027375;28;20030;-69
2022/09/19 13:24:40;;;;;;;6.38;1.80;;;12.50;99.90;;;;;;5029070;28;20091;-67
2022/09/19 13:27:07;;;;;;;3.70;1.95;;;12.50;99.90;;;;;;5030094;28;20037;-70
2022/09/19 13:29:35;;;;;;;4.85;2.00;;;12.50;99.90;;;;;;5032692;28;20479;-67
2022/09/19 13:32:04;;;;;;;6.90;2.40;;;12.60;99.90;;;;;;5029307;28;20100;-67
2022/09/19 13:34:39;;;;;;;4.80;2.17;;;12.60;99.90;;;;;;5030227;28;20128;-67
2022/09/19 13:37:42;;;;;;;12.65;2.63;;;12.60;99.90;;;;;;5030269;28;20026;-71
2022/09/19 13:40:39;;;;;;;4.80;2.03;;;12.60;99.90;;;;;;5024602;28;20034;-67
2022/09/19 13:43:32;;;;;;;5.30;2.45;;;12.50;99.90;;;;;;5022761;28;20051;-72
2022/09/19 13:46:10;;;;;;;9.80;2.15;;;12.50;99.90;;;;;;5021581;28;20045;-68
2022/09/19 13:49:07;;;;;;;4.97;2.30;;;12.40;99.90;;;;;;5030744;28;20025;-67
2022/09/19 13:51:55;;;;;;;9.48;2.28;;;12.20;99.90;;;;;;5029604;28;20034;-67